createdAt,value
2019-02-21T00:01:40.500Z,18.17
2019-02-21T00:04:11.804Z,18.17
2019-02-21T00:06:43.520Z,17.23
2019-02-21T00:09:14.921Z,17.50
2019-02-21T00:11:47.350Z,17.20
2019-02-21T00:14:20.689Z,17.77
2019-02-21T00:16:50.552Z,17.07
2019-02-21T00:19:20.325Z,18.37
2019-02-21T00:21:50.441Z,17.47
2019-02-21T00:24:21.637Z,17.73
2019-02-21T00:26:52.385Z,16.90
2019-02-21T00:29:25.615Z,17.00
2019-02-21T00:31:58.724Z,17.00
2019-02-21T00:34:29.871Z,17.13
2019-02-21T00:37:01.577Z,17.80
2019-02-21T00:39:34.546Z,17.23
2019-02-21T00:42:04.822Z,14.93
2019-02-21T00:44:35.953Z,18.23
2019-02-21T00:47:06.726Z,18.10
2019-02-21T00:49:37.409Z,18.83
2019-02-21T00:52:09.988Z,18.57
2019-02-21T00:54:42.324Z,43.90
2019-02-21T00:57:12.184Z,20.30
2019-02-21T00:59:43.197Z,19.87
2019-02-21T01:02:13.401Z,19.40
2019-02-21T01:04:43.601Z,18.60
2019-02-21T01:07:14.654Z,18.90
2019-02-21T01:09:45.037Z,22.77
2019-02-21T01:12:16.305Z,26.87
2019-02-21T01:14:47.037Z,19.80
2019-02-21T01:17:17.195Z,20.33
2019-02-21T01:19:48.270Z,18.93
2019-02-21T01:22:18.236Z,19.03
2019-02-21T01:24:49.989Z,20.20
2019-02-21T01:27:22.697Z,19.53
2019-02-21T01:29:53.802Z,19.70
2019-02-21T01:32:24.853Z,20.03
2019-02-21T01:34:54.625Z,19.47
2019-02-21T01:37:25.281Z,19.37
2019-02-21T01:39:56.293Z,19.60
2019-02-21T01:42:26.172Z,20.30
2019-02-21T01:44:59.729Z,18.50
2019-02-21T01:47:30.650Z,18.83
2019-02-21T01:50:00.492Z,19.03
2019-02-21T01:52:31.160Z,18.63
2019-02-21T01:55:02.377Z,18.33
2019-02-21T01:57:33.332Z,17.47
2019-02-21T02:00:07.638Z,17.43
2019-02-21T02:02:38.720Z,16.47
2019-02-21T02:05:11.439Z,16.53
2019-02-21T02:07:42.289Z,16.77
2019-02-21T02:10:15.429Z,16.67
2019-02-21T02:12:46.207Z,16.20
2019-02-21T02:15:18.697Z,15.87
2019-02-21T02:17:49.501Z,16.30
2019-02-21T02:20:19.577Z,14.03
2019-02-21T02:22:51.613Z,16.57
2019-02-21T02:25:21.295Z,18.17
2019-02-21T02:27:52.484Z,15.63
2019-02-21T02:30:24.894Z,15.17
2019-02-21T02:32:57.493Z,15.77
2019-02-21T02:35:29.127Z,15.70
2019-02-21T02:38:00.420Z,16.07
2019-02-21T02:40:31.197Z,15.80
2019-02-21T02:43:03.597Z,15.87
2019-02-21T02:45:34.230Z,15.07
2019-02-21T02:48:06.611Z,15.30
2019-02-21T02:50:38.553Z,16.30
2019-02-21T02:53:11.586Z,15.83
2019-02-21T02:55:44.943Z,15.73
2019-02-21T02:58:14.283Z,15.63
2019-02-21T03:00:45.322Z,15.97
2019-02-21T03:03:15.191Z,14.57
2019-02-21T03:05:47.709Z,14.40
2019-02-21T03:08:18.894Z,14.50
2019-02-21T03:10:49.637Z,14.27
2019-02-21T03:16:09.457Z,14.70
2019-02-21T03:18:39.369Z,14.67
2019-02-21T03:21:10.170Z,14.13
2019-02-21T03:23:42.026Z,14.37
2019-02-21T03:26:12.863Z,14.23
2019-02-21T03:28:43.601Z,14.17
2019-02-21T03:31:14.698Z,14.60
2019-02-21T03:33:47.087Z,14.93
2019-02-21T03:36:18.337Z,14.37
2019-02-21T03:38:50.357Z,13.77
2019-02-21T03:41:21.037Z,15.20
2019-02-21T03:43:50.831Z,13.67
2019-02-21T03:46:21.384Z,14.07
2019-02-21T03:48:53.626Z,14.20
2019-02-21T03:51:24.371Z,13.77
2019-02-21T03:53:54.057Z,13.97
2019-02-21T03:56:25.549Z,14.40
2019-02-21T03:58:55.634Z,33.23
2019-02-21T04:01:29.005Z,23.97
2019-02-21T04:03:59.269Z,16.63
2019-02-21T04:06:30.431Z,15.13
2019-02-21T04:09:01.533Z,13.93
2019-02-21T04:11:31.467Z,14.97
2019-02-21T04:14:02.107Z,14.47
2019-02-21T04:16:31.926Z,14.20
2019-02-21T04:19:01.648Z,17.27
2019-02-21T04:21:32.249Z,17.60
2019-02-21T04:24:01.971Z,15.40
2019-02-21T04:26:31.790Z,14.33
2019-02-21T04:29:02.713Z,13.20
2019-02-21T04:31:34.260Z,14.73
2019-02-21T04:34:04.349Z,14.20
2019-02-21T04:36:38.224Z,12.93
2019-02-21T04:39:09.326Z,14.40
2019-02-21T04:41:40.162Z,14.63
2019-02-21T04:44:09.845Z,14.03
2019-02-21T04:46:40.203Z,14.43
2019-02-21T04:49:10.345Z,14.47
2019-02-21T04:51:43.701Z,14.77
2019-02-21T04:54:13.969Z,14.67
2019-02-21T04:56:43.318Z,15.00
2019-02-21T04:59:17.002Z,14.90
2019-02-21T05:01:46.872Z,16.33
2019-02-21T05:04:18.557Z,15.07
2019-02-21T05:06:48.293Z,14.93
2019-02-21T05:09:19.557Z,15.33
2019-02-21T05:11:49.833Z,15.97
2019-02-21T05:14:20.668Z,15.43
2019-02-21T05:16:51.674Z,15.87
2019-02-21T05:19:22.341Z,14.93
2019-02-21T05:21:52.974Z,16.90
2019-02-21T05:24:25.315Z,16.83
2019-02-21T05:27:02.322Z,17.03
2019-02-21T05:29:33.181Z,16.03
2019-02-21T05:32:09.778Z,16.47
2019-02-21T05:34:45.141Z,17.13
2019-02-21T05:37:17.801Z,16.27
2019-02-21T05:39:53.044Z,34.67
2019-02-21T05:42:31.670Z,22.07
2019-02-21T05:45:12.118Z,18.13
2019-02-21T05:47:43.080Z,17.53
2019-02-21T05:50:16.697Z,17.10
2019-02-21T05:53:06.112Z,17.97
2019-02-21T05:55:50.419Z,17.80
2019-02-21T05:58:34.251Z,17.60
2019-02-21T06:01:09.201Z,17.70
2019-02-21T06:03:43.938Z,16.97
2019-02-21T06:06:31.728Z,18.07
2019-02-21T06:09:09.231Z,18.60
2019-02-21T06:11:49.657Z,17.87
2019-02-21T06:14:40.042Z,18.57
2019-02-21T06:17:13.815Z,18.23
2019-02-21T06:19:48.098Z,18.97
2019-02-21T06:22:29.166Z,18.87
2019-02-21T06:25:04.176Z,19.40
2019-02-21T06:27:38.098Z,19.33
2019-02-21T06:30:13.929Z,19.80
2019-02-21T06:32:44.189Z,20.03
2019-02-21T06:35:15.228Z,19.20
2019-02-21T06:37:46.867Z,20.77
2019-02-21T06:40:16.974Z,21.10
2019-02-21T06:42:47.718Z,19.17
2019-02-21T06:45:18.342Z,20.33
2019-02-21T06:47:48.081Z,21.73
2019-02-21T06:50:26.440Z,21.20
2019-02-21T06:52:51.723Z,21.83
2019-02-21T06:55:22.842Z,21.40
2019-02-21T06:57:52.933Z,21.90
2019-02-21T07:00:24.193Z,28.67
2019-02-21T07:02:54.499Z,21.90
2019-02-21T07:05:24.456Z,21.77
2019-02-21T07:07:55.809Z,21.17
2019-02-21T07:10:35.713Z,21.47
2019-02-21T07:13:07.732Z,21.70
2019-02-21T07:15:38.757Z,22.27
2019-02-21T07:18:11.128Z,24.27
2019-02-21T07:20:44.361Z,22.60
2019-02-21T07:23:16.034Z,23.40
2019-02-21T07:25:50.543Z,23.27
2019-02-21T07:28:21.879Z,23.57
2019-02-21T07:30:53.196Z,23.67
2019-02-21T07:33:28.286Z,17.80
2019-02-21T07:35:58.504Z,18.07
2019-02-21T07:38:32.006Z,15.33
2019-02-21T07:41:02.229Z,15.03
2019-02-21T07:43:33.353Z,12.83
2019-02-21T07:46:06.854Z,13.60
2019-02-21T07:48:38.132Z,12.70
2019-02-21T07:51:13.428Z,12.00
2019-02-21T07:53:45.038Z,13.17
2019-02-21T07:56:15.232Z,13.20
2019-02-21T07:58:46.417Z,12.07
2019-02-21T08:01:17.608Z,12.80
2019-02-21T08:03:49.547Z,13.40
2019-02-21T08:06:23.212Z,11.97
2019-02-21T08:08:54.262Z,13.93
2019-02-21T08:11:24.622Z,12.83
2019-02-21T08:13:56.065Z,12.63
2019-02-21T08:16:26.259Z,12.57
2019-02-21T08:18:57.107Z,12.63
2019-02-21T08:21:29.141Z,12.63
2019-02-21T08:24:01.135Z,12.80
2019-02-21T08:26:31.041Z,12.83
2019-02-21T08:29:00.824Z,12.97
2019-02-21T08:31:31.019Z,14.10
2019-02-21T08:34:04.300Z,12.97
2019-02-21T08:36:36.933Z,12.47
2019-02-21T08:39:07.982Z,12.37
2019-02-21T08:41:40.660Z,13.23
2019-02-21T08:44:11.828Z,12.83
2019-02-21T08:46:44.649Z,12.53
2019-02-21T08:49:15.081Z,13.63
2019-02-21T08:51:45.025Z,13.27
2019-02-21T08:54:15.979Z,14.30
2019-02-21T08:56:48.468Z,14.00
2019-02-21T08:59:19.588Z,13.37
2019-02-21T09:01:50.801Z,14.27
2019-02-21T09:04:27.408Z,14.27
2019-02-21T09:06:54.879Z,13.87
2019-02-21T09:09:26.854Z,14.70
2019-02-21T09:11:56.735Z,14.27
2019-02-21T09:14:27.433Z,15.10
2019-02-21T09:16:57.011Z,14.83
2019-02-21T09:19:30.467Z,14.30
2019-02-21T09:22:00.145Z,14.47
2019-02-21T09:24:39.121Z,14.17
2019-02-21T09:27:04.096Z,14.47
2019-02-21T09:29:33.950Z,14.90
2019-02-21T09:32:03.626Z,14.93
2019-02-21T09:34:34.561Z,16.00
2019-02-21T09:37:05.532Z,15.43
2019-02-21T09:39:36.943Z,17.23
2019-02-21T09:42:08.716Z,16.43
2019-02-21T09:44:38.581Z,16.23
2019-02-21T09:47:09.289Z,18.67
2019-02-21T09:49:39.311Z,17.57
2019-02-21T09:52:10.505Z,19.53
2019-02-21T09:54:40.736Z,19.07
2019-02-21T09:57:13.566Z,20.30
2019-02-21T09:59:44.474Z,18.27
2019-02-21T10:02:14.745Z,24.23
2019-02-21T10:04:47.229Z,94.93
2019-02-21T10:07:20.075Z,86.67
2019-02-21T10:09:51.300Z,58.10
2019-02-21T10:12:21.617Z,84.53
2019-02-21T10:14:55.278Z,107.67
2019-02-21T10:17:26.098Z,90.07
2019-02-21T10:19:57.187Z,69.17
2019-02-21T10:22:29.112Z,66.07
2019-02-21T10:24:59.997Z,74.33
2019-02-21T10:27:30.579Z,84.03
2019-02-21T10:30:01.634Z,101.60
2019-02-21T10:32:35.110Z,63.83
2019-02-21T10:35:07.008Z,47.53
2019-02-21T10:37:36.682Z,53.53
2019-02-21T10:40:09.841Z,38.37
2019-02-21T10:42:40.689Z,32.43
2019-02-21T10:45:18.433Z,32.87
2019-02-21T10:47:48.729Z,35.73
2019-02-21T10:50:22.865Z,31.23
2019-02-21T10:52:53.689Z,28.23
2019-02-21T10:55:24.518Z,25.37
2019-02-21T10:57:54.281Z,23.80
2019-02-21T11:00:29.110Z,23.43
2019-02-21T11:02:59.255Z,22.83
2019-02-21T11:05:30.431Z,22.50
2019-02-21T11:08:00.606Z,21.80
2019-02-21T11:10:32.249Z,20.50
2019-02-21T11:13:03.293Z,18.57
2019-02-21T11:15:34.882Z,19.10
2019-02-21T11:18:04.679Z,19.33
2019-02-21T11:20:35.680Z,19.57
2019-02-21T11:23:06.768Z,18.63
2019-02-21T11:25:37.810Z,17.73
2019-02-21T11:28:07.724Z,17.23
2019-02-21T11:30:38.652Z,16.67
2019-02-21T11:33:09.293Z,15.77
2019-02-21T11:35:40.917Z,15.83
2019-02-21T11:38:11.001Z,15.80
2019-02-21T11:40:41.808Z,14.90
2019-02-21T11:43:14.510Z,14.93
2019-02-21T11:45:53.467Z,14.10
2019-02-21T11:48:18.841Z,14.00
2019-02-21T11:50:50.745Z,13.27
2019-02-21T11:53:21.896Z,12.67
2019-02-21T11:55:53.042Z,12.33
2019-02-21T11:58:22.828Z,12.00
2019-02-21T12:00:53.465Z,12.23
2019-02-21T12:03:25.854Z,12.70
2019-02-21T12:05:57.425Z,12.17
2019-02-21T12:08:29.915Z,11.67
2019-02-21T12:11:01.133Z,11.53
2019-02-21T12:13:31.934Z,11.67
2019-02-21T12:16:02.927Z,11.57
2019-02-21T12:18:32.814Z,11.70
2019-02-21T12:21:03.836Z,11.47
2019-02-21T12:23:35.788Z,11.20
2019-02-21T12:26:08.133Z,11.37
2019-02-21T12:31:29.318Z,10.87
2019-02-21T12:34:01.489Z,11.20
2019-02-21T12:36:32.642Z,10.87
2019-02-21T12:39:02.833Z,10.40
2019-02-21T12:41:34.494Z,10.07
2019-02-21T12:44:06.201Z,9.43
2019-02-21T12:46:35.859Z,9.97
2019-02-21T12:49:06.917Z,9.90
2019-02-21T12:51:38.016Z,10.47
2019-02-21T12:54:08.835Z,10.17
2019-02-21T12:56:41.299Z,9.23
2019-02-21T12:59:11.509Z,9.50
2019-02-21T13:01:42.643Z,10.07
2019-02-21T13:04:12.773Z,10.17
2019-02-21T13:06:42.915Z,9.23
2019-02-21T13:09:18.063Z,9.17
2019-02-21T13:11:49.110Z,9.70
2019-02-21T13:14:19.729Z,9.70
2019-02-21T13:16:50.642Z,9.97
2019-02-21T13:19:21.557Z,10.33
2019-02-21T13:21:52.274Z,10.20
2019-02-21T13:24:22.046Z,10.30
2019-02-21T13:26:53.735Z,10.77
2019-02-21T13:29:23.896Z,10.63
2019-02-21T13:31:55.057Z,10.53
2019-02-21T13:34:27.530Z,10.80
2019-02-21T13:36:58.669Z,10.10
2019-02-21T13:39:29.794Z,10.60
2019-02-21T13:42:03.279Z,11.13
2019-02-21T13:44:33.029Z,10.27
2019-02-21T13:47:03.136Z,10.60
2019-02-21T13:49:33.994Z,10.63
2019-02-21T13:52:04.654Z,9.93
2019-02-21T13:54:35.266Z,10.43
2019-02-21T13:57:07.790Z,10.57
2019-02-21T13:59:39.026Z,10.90
2019-02-21T14:02:15.211Z,9.37
2019-02-21T14:04:44.768Z,10.40
2019-02-21T14:07:14.529Z,10.33
2019-02-21T14:09:46.809Z,9.90
2019-02-21T14:12:17.586Z,9.40
2019-02-21T14:14:48.363Z,9.77
2019-02-21T14:17:20.003Z,9.47
2019-02-21T14:19:49.566Z,9.23
2019-02-21T14:22:21.550Z,9.40
2019-02-21T14:24:52.762Z,9.50
2019-02-21T14:27:23.827Z,9.30
2019-02-21T14:29:54.963Z,9.90
2019-02-21T14:32:24.781Z,10.57
2019-02-21T14:34:55.892Z,9.57
2019-02-21T14:37:26.942Z,9.57
2019-02-21T14:39:56.745Z,9.97
2019-02-21T14:42:27.565Z,10.30
2019-02-21T14:44:58.310Z,10.27
2019-02-21T14:47:29.038Z,10.90
2019-02-21T14:49:59.857Z,11.07
2019-02-21T14:52:30.480Z,9.33
2019-02-21T14:55:00.667Z,10.63
2019-02-21T14:57:40.550Z,10.17
2019-02-21T15:00:04.591Z,10.43
2019-02-21T15:02:35.166Z,10.63
2019-02-21T15:05:10.031Z,11.07
2019-02-21T15:07:39.498Z,10.13
2019-02-21T15:10:10.731Z,10.37
2019-02-21T15:12:40.819Z,10.00
2019-02-21T15:15:22.095Z,11.13
2019-02-21T15:17:52.209Z,11.07
2019-02-21T15:20:21.567Z,16.40
2019-02-21T15:22:53.909Z,17.40
2019-02-21T15:25:23.330Z,14.87
2019-02-21T15:27:54.450Z,15.13
2019-02-21T15:30:28.186Z,14.03
2019-02-21T15:32:59.766Z,13.63
2019-02-21T15:35:30.494Z,12.77
2019-02-21T15:38:02.448Z,12.40
2019-02-21T15:40:32.688Z,12.03
2019-02-21T15:43:05.369Z,12.00
2019-02-21T15:45:34.896Z,12.43
2019-02-21T15:48:05.716Z,11.70
2019-02-21T15:50:36.493Z,12.07
2019-02-21T15:53:06.594Z,11.20
2019-02-21T15:55:36.392Z,11.80
2019-02-21T15:58:07.758Z,11.63
2019-02-21T16:00:38.923Z,11.50
2019-02-21T16:03:09.682Z,13.30
2019-02-21T16:05:39.826Z,18.10
2019-02-21T16:08:12.721Z,17.50
2019-02-21T16:10:43.786Z,20.43
2019-02-21T16:13:14.875Z,19.33
2019-02-21T16:15:45.453Z,20.80
2019-02-21T16:18:16.342Z,19.03
2019-02-21T16:20:46.957Z,20.63
2019-02-21T16:23:19.344Z,20.07
2019-02-21T16:25:49.236Z,16.80
2019-02-21T16:28:19.792Z,20.90
2019-02-21T16:30:50.887Z,22.40
2019-02-21T16:33:22.930Z,22.67
2019-02-21T16:35:53.051Z,22.97
2019-02-21T16:38:34.317Z,22.13
2019-02-21T16:41:04.918Z,20.57
2019-02-21T16:43:35.597Z,22.50
2019-02-21T16:46:08.074Z,21.00
2019-02-21T16:48:38.233Z,21.77
2019-02-21T16:51:08.318Z,21.00
2019-02-21T16:53:40.185Z,22.00
2019-02-21T16:56:09.879Z,19.17
2019-02-21T16:58:42.866Z,21.47
2019-02-21T17:01:13.392Z,20.13
2019-02-21T17:03:45.844Z,19.63
2019-02-21T17:06:16.910Z,19.90
2019-02-21T17:08:48.917Z,20.63
2019-02-21T17:11:18.787Z,21.37
2019-02-21T17:13:48.861Z,22.80
2019-02-21T17:16:18.761Z,21.33
2019-02-21T17:18:51.472Z,20.20
2019-02-21T17:21:23.770Z,20.00
2019-02-21T17:23:54.657Z,22.30
2019-02-21T17:26:24.457Z,21.67
2019-02-21T17:28:56.006Z,26.00
2019-02-21T17:31:26.960Z,23.20
2019-02-21T17:33:59.766Z,21.97
2019-02-21T17:36:32.645Z,22.20
2019-02-21T17:39:03.279Z,22.93
2019-02-21T17:41:34.442Z,22.53
2019-02-21T17:44:05.257Z,21.07
2019-02-21T17:46:35.318Z,22.60
2019-02-21T17:49:05.508Z,21.70
2019-02-21T17:51:36.375Z,21.10
2019-02-21T17:54:06.996Z,20.93
2019-02-21T17:56:37.676Z,21.97
2019-02-21T17:59:08.385Z,22.17
2019-02-21T18:01:38.586Z,22.53
2019-02-21T18:04:08.487Z,22.63
2019-02-21T18:06:38.778Z,23.97
2019-02-21T18:09:11.689Z,24.00
2019-02-21T18:11:42.838Z,24.40
2019-02-21T18:14:14.793Z,23.67
2019-02-21T18:16:44.684Z,25.87
2019-02-21T18:19:14.463Z,23.73
2019-02-21T18:21:45.205Z,25.53
2019-02-21T18:24:16.644Z,24.13
2019-02-21T18:26:47.957Z,26.00
2019-02-21T18:29:21.092Z,26.13
2019-02-21T18:31:52.845Z,27.57
2019-02-21T18:34:24.080Z,26.10
2019-02-21T18:36:54.917Z,27.43
2019-02-21T18:39:25.866Z,25.77
2019-02-21T18:41:57.838Z,27.10
2019-02-21T18:44:28.564Z,27.73
2019-02-21T18:46:59.255Z,29.33
2019-02-21T18:49:29.042Z,30.90
2019-02-21T18:52:00.056Z,28.90
2019-02-21T18:54:30.801Z,28.97
2019-02-21T18:57:00.912Z,26.77
2019-02-21T18:59:34.435Z,28.47
2019-02-21T19:02:05.384Z,27.93
2019-02-21T19:04:37.466Z,29.27
2019-02-21T19:07:08.341Z,28.43
2019-02-21T19:09:39.370Z,32.97
2019-02-21T19:12:11.951Z,30.80
2019-02-21T19:14:42.697Z,36.30
2019-02-21T19:17:14.604Z,36.53
2019-02-21T19:19:47.097Z,32.67
2019-02-21T19:22:18.182Z,32.13
2019-02-21T19:24:48.333Z,28.67
2019-02-21T19:27:19.458Z,27.40
2019-02-21T19:29:50.282Z,25.47
2019-02-21T19:32:20.446Z,24.73
2019-02-21T19:34:51.214Z,24.23
2019-02-21T19:37:21.388Z,22.37
2019-02-21T19:39:54.192Z,23.00
2019-02-21T19:42:25.210Z,22.53
2019-02-21T19:44:57.625Z,22.60
2019-02-21T19:47:28.654Z,38.43
2019-02-21T19:50:00.458Z,26.23
2019-02-21T19:52:33.053Z,23.43
2019-02-21T19:55:05.819Z,22.53
2019-02-21T19:57:38.725Z,25.53
2019-02-21T20:00:17.790Z,24.67
2019-02-21T20:02:49.671Z,25.20
2019-02-21T20:05:20.435Z,23.73
2019-02-21T20:07:52.271Z,23.60
2019-02-21T20:10:24.665Z,24.53
2019-02-21T20:12:56.322Z,25.43
2019-02-21T20:15:28.397Z,25.07
2019-02-21T20:17:58.259Z,25.40
2019-02-21T20:20:28.452Z,24.80
2019-02-21T20:22:59.095Z,25.67
2019-02-21T20:25:28.842Z,25.33
2019-02-21T20:27:59.467Z,26.20
2019-02-21T20:30:29.268Z,24.67
2019-02-21T20:32:59.555Z,27.07
2019-02-21T20:35:32.366Z,28.17
2019-02-21T20:38:03.281Z,26.80
2019-02-21T20:40:32.657Z,27.13
2019-02-21T20:43:07.568Z,28.00
2019-02-21T20:45:37.528Z,27.03
2019-02-21T20:48:08.474Z,27.50
2019-02-21T20:50:38.226Z,27.30
2019-02-21T20:53:11.020Z,28.27
2019-02-21T20:55:44.483Z,27.10
2019-02-21T20:58:14.363Z,29.37
2019-02-21T21:00:45.181Z,28.57
2019-02-21T21:03:17.584Z,28.77
2019-02-21T21:05:47.888Z,30.03
2019-02-21T21:08:21.226Z,30.87
2019-02-21T21:10:51.207Z,31.37
2019-02-21T21:13:22.175Z,33.17
2019-02-21T21:15:54.078Z,32.67
2019-02-21T21:18:24.174Z,32.73
2019-02-21T21:20:55.130Z,33.80
2019-02-21T21:23:25.052Z,34.73
2019-02-21T21:25:55.919Z,34.93
2019-02-21T21:28:26.537Z,38.43
2019-02-21T21:30:57.283Z,39.93
2019-02-21T21:33:27.441Z,39.87
2019-02-21T21:35:58.602Z,41.43
2019-02-21T21:38:29.335Z,43.27
2019-02-21T21:41:00.368Z,43.87
2019-02-21T21:43:30.552Z,45.33
2019-02-21T21:46:01.311Z,45.67
2019-02-21T21:48:31.070Z,42.60
2019-02-21T21:51:05.132Z,45.33
2019-02-21T21:53:36.237Z,45.47
2019-02-21T21:56:06.117Z,45.73
2019-02-21T21:58:36.305Z,44.73
2019-02-21T22:01:07.360Z,44.63
2019-02-21T22:03:38.163Z,45.33
2019-02-21T22:06:09.497Z,47.00
2019-02-21T22:08:39.403Z,47.23
2019-02-21T22:11:09.586Z,45.77
2019-02-21T22:13:39.473Z,43.80
2019-02-21T22:16:09.257Z,45.77
2019-02-21T22:18:39.344Z,44.83
2019-02-21T22:21:11.182Z,43.43
2019-02-21T22:23:42.577Z,45.40
2019-02-21T22:26:12.837Z,46.47
2019-02-21T22:28:44.020Z,44.37
2019-02-21T22:31:15.145Z,45.90
2019-02-21T22:33:47.228Z,46.00
2019-02-21T22:36:20.140Z,44.33
2019-02-21T22:38:51.341Z,43.33
2019-02-21T22:41:21.517Z,44.53
2019-02-21T22:43:52.377Z,43.77
2019-02-21T22:46:22.993Z,45.03
2019-02-21T22:48:54.016Z,45.70
2019-02-21T22:51:24.850Z,43.47
2019-02-21T22:53:55.600Z,43.67
2019-02-21T22:56:26.586Z,43.03
2019-02-21T22:58:57.733Z,43.07
2019-02-21T23:01:30.141Z,43.33
2019-02-21T23:04:02.446Z,44.73
2019-02-21T23:06:53.627Z,44.30
2019-02-21T23:09:27.941Z,45.23
2019-02-21T23:11:58.293Z,45.47
2019-02-21T23:14:29.298Z,47.37
2019-02-21T23:17:00.243Z,48.20
2019-02-21T23:19:30.897Z,47.20
2019-02-21T23:22:01.485Z,47.07
2019-02-21T23:24:32.194Z,45.47
2019-02-21T23:27:03.524Z,46.03
2019-02-21T23:29:36.473Z,45.63
2019-02-21T23:32:07.411Z,45.67
2019-02-21T23:34:38.764Z,46.60
2019-02-21T23:37:09.846Z,48.40
2019-02-21T23:39:42.385Z,48.70
2019-02-21T23:42:14.320Z,48.60
2019-02-21T23:44:45.081Z,49.23
2019-02-21T23:47:15.969Z,47.53
2019-02-21T23:49:46.997Z,46.87
2019-02-21T23:52:17.836Z,47.70
2019-02-21T23:54:48.845Z,45.53
2019-02-21T23:57:20.522Z,46.77
2019-02-21T23:59:51.835Z,48.87
